Time;durP1;ratioP1;P1;durP2;ratioP2;P2;SDS_P1;SDS_P2;PMS_P1;PMS_P2;Temp;Humidity;BMP_temperature;BMP_pressure;BME280_temperature;BME280_humidity;BME280_pressure;Samples;Min_cycle;Max_cycle;Signal;HPM_P1;HPM_P2
2022/06/14 00:00:54;;;;;;;36.35;34.42;;;;;;;21.92;36.55;102314.69;5073198;28;20539;-71
2022/06/14 00:03:31;;;;;;;36.53;34.45;;;;;;;21.89;36.58;102320.75;5071707;28;20477;-72
2022/06/14 00:06:00;;;;;;;37.22;35.15;;;;;;;21.87;36.88;102323.78;5073605;28;20078;-72
2022/06/14 00:08:28;;;;;;;36.92;34.92;;;;;;;21.82;36.82;102329.31;5072977;28;20029;-71
2022/06/14 00:10:55;;;;;;;36.28;34.40;;;;;;;21.79;36.69;102325.19;5073449;28;20037;-72
2022/06/14 00:13:21;;;;;;;35.80;33.95;;;;;;;21.76;36.61;102330.44;5066897;28;20032;-72
2022/06/14 00:15:48;;;;;;;35.63;33.83;;;;;;;21.73;36.47;102315.31;5068794;28;20378;-72
2022/06/14 00:18:15;;;;;;;35.25;33.35;;;;;;;21.70;36.57;102323.31;5059620;28;20050;-72
2022/06/14 00:20:42;;;;;;;35.13;33.42;;;;;;;21.67;36.91;102318.34;5072987;28;20036;-72
2022/06/14 00:23:08;;;;;;;34.60;32.90;;;;;;;21.64;36.61;102316.16;5064048;28;20032;-71
2022/06/14 00:25:40;;;;;;;35.08;32.95;;;;;;;21.61;36.59;102307.38;5072197;28;20080;-71
2022/06/14 00:28:12;;;;;;;34.83;33.13;;;;;;;21.57;36.95;102308.19;5072682;28;20101;-71
2022/06/14 00:30:39;;;;;;;36.97;34.88;;;;;;;21.54;37.12;102306.81;5073234;28;20024;-72
2022/06/14 00:33:05;;;;;;;33.80;31.95;;;;;;;21.50;36.88;102305.75;5071542;28;20032;-73
2022/06/14 00:35:30;;;;;;;34.25;32.38;;;;;;;21.47;36.90;102309.06;5071960;28;20087;-71
2022/06/14 00:37:56;;;;;;;34.60;32.50;;;;;;;21.45;36.98;102305.78;5072566;28;20039;-72
2022/06/14 00:40:26;;;;;;;34.33;32.42;;;;;;;21.42;36.87;102309.09;5072618;28;20035;-71
2022/06/14 00:42:52;;;;;;;34.72;32.35;;;;;;;21.39;37.23;102301.38;5070141;28;20024;-71
2022/06/14 00:45:18;;;;;;;34.03;32.33;;;;;;;21.35;37.09;102298.34;5072158;28;20388;-71
2022/06/14 00:47:47;;;;;;;33.65;31.85;;;;;;;21.34;37.03;102298.59;5073206;28;20112;-73
2022/06/14 00:50:22;;;;;;;33.58;31.67;;;;;;;21.32;37.17;102300.81;5075619;28;20078;-72
2022/06/14 00:52:56;;;;;;;33.40;31.80;;;;;;;21.28;36.99;102299.72;5069804;28;20032;-72
2022/06/14 00:55:39;;;;;;;34.33;32.30;;;;;;;21.24;37.16;102299.44;5074504;28;20055;-72
2022/06/14 00:58:14;;;;;;;34.08;32.08;;;;;;;21.22;37.44;102303.56;5069524;28;20059;-71
2022/06/14 01:00:48;;;;;;;36.03;33.67;;;;;;;21.17;37.10;102298.91;5068575;28;20028;-71
2022/06/14 01:03:20;;;;;;;33.38;31.33;;;;;;;21.13;37.01;102304.13;5071751;28;20075;-72
2022/06/14 01:06:07;;;;;;;33.75;31.90;;;;;;;21.10;37.32;102299.19;5056260;28;20041;-71
2022/06/14 01:08:41;;;;;;;34.25;32.35;;;;;;;21.07;37.65;102299.75;5072531;28;20039;-73
2022/06/14 01:11:12;;;;;;;33.33;31.42;;;;;;;21.04;37.31;102297.56;5073281;28;20074;-73
2022/06/14 01:13:38;;;;;;;34.25;32.35;;;;;;;21.01;37.08;102295.34;5059699;28;20456;-71
2022/06/14 01:16:04;;;;;;;32.83;31.20;;;;;;;20.98;37.70;102292.31;5071997;28;20036;-71
2022/06/14 01:18:30;;;;;;;34.50;32.22;;;;;;;20.94;37.63;102292.88;5058608;28;20049;-71
2022/06/14 01:20:55;;;;;;;31.92;30.23;;;;;;;20.92;37.61;102289.59;5066966;28;20072;-71
2022/06/14 01:23:21;;;;;;;32.85;31.25;;;;;;;20.89;37.49;102286.53;5059424;28;20469;-71
2022/06/14 01:25:51;;;;;;;33.70;31.73;;;;;;;20.88;37.57;102295.91;5071453;28;20092;-71
2022/06/14 01:28:21;;;;;;;33.45;31.75;;;;;;;20.83;37.78;102293.97;5071559;28;20032;-72
2022/06/14 01:30:50;;;;;;;32.95;31.10;;;;;;;20.81;37.73;102285.16;5070401;28;20028;-73
2022/06/14 01:33:19;;;;;;;32.03;30.42;;;;;;;20.78;37.55;102288.47;5058473;28;20033;-72
2022/06/14 01:35:54;;;;;;;34.88;32.88;;;;;;;20.75;37.46;102291.78;5069465;28;20504;-72
2022/06/14 01:38:20;;;;;;;33.03;31.38;;;;;;;20.71;37.47;102280.53;5071704;28;20024;-73
2022/06/14 01:41:04;;;;;;;33.40;31.70;;;;;;;20.69;38.02;102287.38;5071204;28;20051;-72
2022/06/14 01:43:35;;;;;;;31.55;29.70;;;;;;;20.64;37.89;102288.19;5070025;28;20036;-71
2022/06/14 01:46:04;;;;;;;32.33;30.73;;;;;;;20.62;37.88;102286.81;5071886;28;20362;-71
2022/06/14 01:48:32;;;;;;;31.15;29.52;;;;;;;20.59;37.58;102284.59;5071634;28;20476;-71
2022/06/14 01:54:48;;;;;;;31.27;29.67;;;;;;;20.50;38.02;102273.31;5071230;28;20059;-72
2022/06/14 01:57:30;;;;;;;31.13;29.52;;;;;;;20.48;38.02;102278.25;5038814;28;20087;-72
2022/06/14 02:00:13;;;;;;;31.67;29.83;;;;;;;20.44;38.16;102272.50;5068638;28;20020;-72
2022/06/14 02:02:39;;;;;;;32.25;30.30;;;;;;;20.40;37.75;102271.38;5070909;28;20036;-72
2022/06/14 02:05:21;;;;;;;30.90;29.15;;;;;;;20.37;37.95;102269.19;5070672;28;20037;-72
2022/06/14 02:08:05;;;;;;;31.45;29.67;;;;;;;20.35;38.00;102263.13;5071484;28;20029;-71
2022/06/14 02:10:40;;;;;;;31.50;29.52;;;;;;;20.32;38.23;102260.94;5071431;28;20078;-71
2022/06/14 02:13:30;;;;;;;30.70;29.13;;;;;;;20.28;38.13;102266.13;5071959;28;20025;-72
2022/06/14 02:15:55;;;;;;;30.17;28.58;;;;;;;20.24;38.18;102266.97;5073795;28;20036;-72
2022/06/14 02:18:30;;;;;;;29.60;27.80;;;;;;;20.21;38.00;102254.63;5075582;28;20029;-71
2022/06/14 02:21:05;;;;;;;30.85;29.15;;;;;;;20.20;38.10;102260.38;5075423;28;20376;-71
2022/06/14 02:23:39;;;;;;;30.30;28.73;;;;;;;20.17;38.18;102260.91;5075478;28;20388;-71
2022/06/14 02:26:10;;;;;;;30.33;28.83;;;;;;;20.13;38.40;102257.88;5072253;28;20036;-71
2022/06/14 02:28:39;;;;;;;29.98;28.48;;;;;;;20.10;38.00;102251.00;5075360;28;20032;-72
2022/06/14 02:31:13;;;;;;;29.92;28.42;;;;;;;20.08;38.51;102244.97;5075172;28;20061;-71
2022/06/14 02:33:49;;;;;;;30.50;28.85;;;;;;;20.04;38.10;102249.34;5074621;28;20101;-70
2022/06/14 02:36:20;;;;;;;30.20;28.65;;;;;;;20.02;38.22;102242.50;5073146;28;20040;-71
2022/06/14 02:39:20;;;;;;;32.95;31.25;;;;;;;20.00;38.19;102244.66;5073925;28;20435;-71
2022/06/14 02:42:11;;;;;;;31.17;29.45;;;;;;;19.94;38.33;102238.34;5074026;28;20420;-71
2022/06/14 02:44:46;;;;;;;30.85;29.27;;;;;;;19.92;37.91;102234.22;5072827;28;20020;-71
2022/06/14 02:47:20;;;;;;;28.85;27.42;;;;;;;19.89;38.36;102239.16;5068489;28;20059;-71
2022/06/14 02:50:00;;;;;;;31.20;29.35;;;;;;;19.85;38.64;102235.28;5074190;28;20029;-71
2022/06/14 02:52:25;;;;;;;29.92;28.23;;;;;;;19.83;38.19;102236.66;5075083;28;20056;-71
2022/06/14 02:54:57;;;;;;;30.70;29.15;;;;;;;19.80;38.42;102228.97;5073369;28;20488;-71
2022/06/14 02:57:49;;;;;;;30.27;28.77;;;;;;;19.77;38.27;102238.56;5068130;28;20028;-71
2022/06/14 03:00:26;;;;;;;29.42;27.83;;;;;;;19.74;38.58;102236.34;5074974;28;20194;-71
2022/06/14 03:03:09;;;;;;;29.88;28.27;;;;;;;19.70;38.30;102240.72;5074295;28;20032;-71
2022/06/14 03:05:36;;;;;;;29.77;28.27;;;;;;;19.67;38.44;102233.03;5059044;28;20098;-71
2022/06/14 03:08:34;;;;;;;29.35;27.92;;;;;;;19.65;38.29;102241.50;5075292;28;20039;-71
2022/06/14 03:11:28;;;;;;;29.50;27.80;;;;;;;19.61;38.50;102243.13;5048000;28;20592;-71
2022/06/14 03:14:01;;;;;;;30.17;28.58;;;;;;;19.57;38.43;102242.00;5073677;28;20024;-70
2022/06/14 03:16:49;;;;;;;28.25;26.65;;;;;;;19.55;38.58;102244.19;5074329;28;20111;-71
2022/06/14 03:19:23;;;;;;;28.88;27.30;;;;;;;19.52;38.25;102249.38;5057765;28;20049;-71
2022/06/14 03:21:57;;;;;;;29.67;28.17;;;;;;;19.49;38.53;102241.69;5057116;28;20082;-71
2022/06/14 03:24:35;;;;;;;28.85;27.40;;;;;;;19.46;38.58;102234.84;5072785;28;20058;-71
2022/06/14 03:27:37;;;;;;;28.73;27.23;;;;;;;19.43;38.64;102235.38;5071698;28;20028;-71
2022/06/14 03:30:05;;;;;;;27.83;26.42;;;;;;;19.39;38.69;102243.28;5074136;28;20033;-71
2022/06/14 03:32:45;;;;;;;27.85;26.35;;;;;;;19.35;38.35;102228.47;5074835;28;20025;-71
2022/06/14 03:35:29;;;;;;;28.08;26.35;;;;;;;19.33;38.58;102232.59;5067647;28;20039;-71
2022/06/14 03:37:59;;;;;;;28.60;27.10;;;;;;;19.29;38.85;102235.00;5068438;28;20061;-71
2022/06/14 03:40:24;;;;;;;28.73;26.83;;;;;;;19.27;38.57;102237.19;5066406;28;20037;-71
2022/06/14 03:42:50;;;;;;;30.58;28.00;;;;;;;19.26;38.94;102234.72;5073516;28;20032;-71
2022/06/14 03:45:23;;;;;;;28.85;27.35;;;;;;;19.22;38.69;102229.75;5072427;28;20035;-71
2022/06/14 03:47:48;;;;;;;28.80;27.30;;;;;;;19.20;38.93;102240.16;5073426;28;20054;-71
2022/06/14 03:50:20;;;;;;;27.92;26.42;;;;;;;19.18;38.68;102238.78;5073807;28;20032;-72
2022/06/14 03:52:48;;;;;;;28.80;27.30;;;;;;;19.15;38.63;102236.56;5089197;28;20029;-72
2022/06/14 03:55:53;;;;;;;27.17;25.80;;;;;;;19.12;38.87;102245.31;5071932;28;20033;-72
2022/06/14 03:58:37;;;;;;;28.10;26.45;;;;;;;19.09;38.67;102235.69;5042474;28;20484;-72
2022/06/14 04:01:15;;;;;;;27.85;26.45;;;;;;;19.06;38.78;102241.72;5073151;28;20035;-72
2022/06/14 04:04:01;;;;;;;26.95;25.55;;;;;;;19.02;38.78;102251.53;5064046;28;20033;-69
2022/06/14 04:06:48;;;;;;;28.00;26.30;;;;;;;19.00;39.16;102254.56;5064754;28;20029;-72
2022/06/14 04:09:52;;;;;;;27.70;26.20;;;;;;;18.97;38.80;102252.31;5073590;28;20020;-72
2022/06/14 04:12:38;;;;;;;26.70;25.20;;;;;;;18.94;39.20;102252.03;4992189;28;20172;-72
2022/06/14 04:15:27;;;;;;;27.80;26.00;;;;;;;18.91;38.88;102250.63;5010950;28;20049;-73
2022/06/14 04:18:35;;;;;;;28.67;27.08;;;;;;;18.86;39.01;102249.78;5046703;28;20035;-73
2022/06/14 04:21:05;;;;;;;;;;;;;;;18.82;39.09;102241.25;5071187;28;20099;-72
2022/06/14 04:23:40;;;;;;;27.65;25.75;;;;;;;18.78;39.25;102242.88;5073108;28;20430;-73
2022/06/14 04:26:09;;;;;;;27.50;25.90;;;;;;;18.77;39.12;102249.41;5072443;28;20040;-72
2022/06/14 04:28:50;;;;;;;29.73;27.42;;;;;;;18.74;39.20;102248.00;5072866;28;20032;-72
2022/06/14 04:31:37;;;;;;;28.23;26.50;;;;;;;18.73;39.25;102248.28;5072395;28;20040;-72
2022/06/14 04:34:18;;;;;;;26.83;25.20;;;;;;;18.69;39.40;102247.97;5072112;28;20325;-72
2022/06/14 04:36:55;;;;;;;27.05;25.45;;;;;;;18.68;39.14;102253.72;5071949;28;20028;-69
2022/06/14 04:39:42;;;;;;;27.80;26.27;;;;;;;18.64;39.49;102253.38;5070882;28;20028;-72
2022/06/14 04:42:15;;;;;;;27.58;25.83;;;;;;;18.62;39.37;102254.72;5072529;28;20025;-71
2022/06/14 04:44:43;;;;;;;27.83;26.23;;;;;;;18.61;39.39;102259.38;5072910;28;20035;-72
2022/06/14 04:47:13;;;;;;;26.48;24.98;;;;;;;18.58;39.15;102258.00;5069245;28;20509;-72
2022/06/14 04:49:47;;;;;;;26.48;24.98;;;;;;;18.57;39.26;102256.34;5069184;28;20036;-72
2022/06/14 04:52:19;;;;;;;27.00;25.50;;;;;;;18.55;39.46;102249.50;5072064;28;20440;-71
2022/06/14 04:55:04;;;;;;;26.58;25.17;;;;;;;18.55;39.29;102264.00;5072503;28;20464;-71
2022/06/14 04:57:44;;;;;;;27.38;25.67;;;;;;;18.52;39.65;102260.94;5070881;28;20493;-71
2022/06/14 05:00:15;;;;;;;27.27;25.88;;;;;;;18.49;39.56;102258.72;5070642;28;20064;-71
2022/06/14 05:03:17;;;;;;;28.63;26.88;;;;;;;18.47;39.57;102264.47;5072803;28;20082;-72
2022/06/14 05:05:49;;;;;;;27.38;25.77;;;;;;;18.46;39.51;102271.00;5049408;28;20040;-72
2022/06/14 05:08:35;;;;;;;27.08;25.63;;;;;;;18.46;39.67;102272.94;5070453;28;20032;-72
2022/06/14 05:11:01;;;;;;;27.25;25.75;;;;;;;18.43;39.76;102271.53;5071812;28;20035;-71
2022/06/14 05:13:38;;;;;;;27.55;25.95;;;;;;;18.43;39.56;102270.72;5072406;28;20435;-72
2022/06/14 05:16:19;;;;;;;27.98;26.17;;;;;;;18.43;39.92;102271.53;5072025;28;20032;-72
2022/06/14 05:19:00;;;;;;;26.60;25.10;;;;;;;18.44;39.77;102270.44;5066139;28;20522;-72
2022/06/14 05:21:45;;;;;;;28.13;26.50;;;;;;;18.43;39.93;102266.06;5071858;28;20028;-72
2022/06/14 05:24:10;;;;;;;26.90;25.30;;;;;;;18.43;39.87;102263.31;5071209;28;20048;-72
2022/06/14 05:26:45;;;;;;;27.30;25.77;;;;;;;18.45;40.20;102268.56;5072446;28;20104;-71
2022/06/14 05:29:16;;;;;;;26.75;25.25;;;;;;;18.45;40.33;102269.38;5071284;28;20112;-72
2022/06/14 05:32:08;;;;;;;27.05;25.42;;;;;;;18.45;40.41;102265.81;5071633;28;20047;-72
2022/06/14 05:34:49;;;;;;;27.77;26.08;;;;;;;18.45;40.39;102265.81;5052294;28;20404;-71
2022/06/14 05:37:36;;;;;;;26.13;24.48;;;;;;;18.45;40.20;102268.56;5069289;28;20028;-72
2022/06/14 05:40:30;;;;;;;29.15;27.55;;;;;;;18.45;40.05;102274.03;5068995;28;20028;-71
2022/06/14 05:43:02;;;;;;;27.83;26.23;;;;;;;18.46;40.16;102276.47;5054559;28;20032;-71
2022/06/14 05:45:31;;;;;;;26.80;25.08;;;;;;;18.46;40.29;102279.22;5071667;28;20036;-72
2022/06/14 05:48:06;;;;;;;27.92;26.20;;;;;;;18.48;40.00;102278.97;5067803;28;20048;-71
2022/06/14 05:50:36;;;;;;;26.63;24.92;;;;;;;18.48;40.36;102277.06;5072076;28;20484;-71
2022/06/14 05:53:15;;;;;;;27.20;25.70;;;;;;;18.50;40.33;102276.81;5072148;28;20457;-71
2022/06/14 05:55:44;;;;;;;26.23;24.75;;;;;;;18.51;40.62;102279.25;5071372;28;20480;-73
2022/06/14 05:58:42;;;;;;;28.85;26.55;;;;;;;18.53;40.51;102273.56;5085313;28;20038;-72
2022/06/14 06:01:14;;;;;;;27.00;25.33;;;;;;;18.53;40.57;102282.56;5060636;28;20401;-71
2022/06/14 06:03:39;;;;;;;27.92;26.25;;;;;;;18.56;40.62;102275.75;5072098;28;20056;-71
2022/06/14 06:06:10;;;;;;;28.83;26.80;;;;;;;18.57;40.98;102281.00;5070976;28;20452;-72
2022/06/14 06:08:56;;;;;;;26.90;25.35;;;;;;;18.60;41.00;102285.94;5070221;28;20044;-71
2022/06/14 06:11:38;;;;;;;26.42;24.98;;;;;;;18.63;41.03;102284.59;5071526;28;20663;-72
2022/06/14 06:14:19;;;;;;;29.42;27.48;;;;;;;18.67;41.10;102273.94;5071290;28;20029;-72
2022/06/14 06:17:04;;;;;;;26.73;24.85;;;;;;;18.68;41.18;102272.88;5071654;28;20063;-72
2022/06/14 06:19:32;;;;;;;26.33;24.92;;;;;;;18.70;40.97;102278.91;5069933;28;20036;-72
2022/06/14 06:22:16;;;;;;;;;;;;;;;18.71;41.14;102286.84;5071565;28;20029;-73
2022/06/14 06:25:04;;;;;;;26.40;24.38;;;;;;;18.73;41.30;102281.94;5054175;28;19983;-73
2022/06/14 06:27:47;;;;;;;26.08;24.63;;;;;;;18.76;41.27;102283.38;5065528;28;20506;-71
2022/06/14 06:30:26;;;;;;;27.77;26.13;;;;;;;18.79;41.13;102278.19;5070848;28;20040;-73
2022/06/14 06:32:53;;;;;;;26.92;25.33;;;;;;;18.83;41.12;102274.94;5071689;28;20032;-72
2022/06/14 06:35:22;;;;;;;26.13;24.63;;;;;;;18.85;41.36;102284.56;5066399;28;20044;-72
2022/06/14 06:38:04;;;;;;;28.55;26.42;;;;;;;18.91;41.28;102280.75;5063493;28;20043;-73
2022/06/14 06:40:32;;;;;;;28.25;26.55;;;;;;;18.93;41.28;102284.06;5062397;28;20029;-73
2022/06/14 06:43:06;;;;;;;26.90;25.35;;;;;;;18.96;41.38;102285.44;5070707;28;20540;-72
2022/06/14 06:45:38;;;;;;;27.33;25.83;;;;;;;18.98;41.32;102284.09;5069988;28;20104;-72
2022/06/14 06:48:11;;;;;;;28.17;26.30;;;;;;;19.03;41.21;102286.06;5070515;28;20039;-74
2022/06/14 06:50:47;;;;;;;29.60;27.65;;;;;;;19.06;40.95;102287.44;5070801;28;20051;-72
2022/06/14 06:53:13;;;;;;;28.95;27.27;;;;;;;19.07;41.07;102289.91;5070823;28;20082;-72
2022/06/14 06:55:59;;;;;;;28.70;27.00;;;;;;;19.11;41.24;102293.78;5063901;28;20031;-72
2022/06/14 06:58:43;;;;;;;27.92;26.42;;;;;;;19.16;41.07;102295.75;5071410;28;20092;-73
2022/06/14 07:01:19;;;;;;;28.08;26.38;;;;;;;19.20;41.08;102288.63;5074536;28;20347;-72
2022/06/14 07:04:11;;;;;;;29.13;27.33;;;;;;;19.26;41.02;102286.78;5071836;28;20020;-73
2022/06/14 07:06:39;;;;;;;27.90;26.30;;;;;;;19.30;41.09;102290.63;5065652;28;20032;-72
2022/06/14 07:09:38;;;;;;;28.70;26.90;;;;;;;19.33;41.06;102282.72;5053614;28;20187;-72
2022/06/14 07:12:12;;;;;;;29.02;27.30;;;;;;;19.38;40.86;102290.97;5056969;28;20089;-72
2022/06/14 07:14:46;;;;;;;27.70;26.08;;;;;;;19.42;40.86;102278.38;5072799;28;20031;-73
2022/06/14 07:17:28;;;;;;;29.75;27.80;;;;;;;19.46;41.07;102282.25;5069347;28;20028;-72
2022/06/14 07:20:15;;;;;;;26.75;25.35;;;;;;;19.53;40.96;102290.25;5069217;28;20029;-72
2022/06/14 07:22:44;;;;;;;28.17;26.48;;;;;;;19.57;41.41;102285.03;5067044;28;20139;-72
2022/06/14 07:25:36;;;;;;;29.63;27.88;;;;;;;19.64;40.88;102285.63;5058091;28;20041;-72
2022/06/14 07:28:09;;;;;;;29.17;27.63;;;;;;;19.70;40.73;102283.75;5063493;28;20075;-73
2022/06/14 07:30:45;;;;;;;29.83;28.23;;;;;;;19.75;40.90;102289.28;5071920;28;20078;-72
2022/06/14 07:33:11;;;;;;;29.77;27.88;;;;;;;19.79;41.13;102287.66;5071027;28;20032;-72
2022/06/14 07:35:51;;;;;;;29.90;27.85;;;;;;;19.85;40.86;102279.16;5073211;28;20036;-72
2022/06/14 07:38:37;;;;;;;30.80;28.77;;;;;;;19.94;40.95;102289.66;5071307;28;20107;-70
2022/06/14 07:41:22;;;;;;;29.45;27.88;;;;;;;19.99;41.19;102295.16;5067859;28;20542;-72
2022/06/14 07:43:55;;;;;;;30.10;28.40;;;;;;;20.06;40.92;102299.28;5068220;28;20428;-72
2022/06/14 07:46:30;;;;;;;30.88;29.23;;;;;;;20.12;40.20;102288.34;5058381;28;20387;-72
2022/06/14 07:49:03;;;;;;;30.30;28.80;;;;;;;20.15;40.71;102282.31;5071718;28;20051;-72
2022/06/14 07:51:34;;;;;;;31.70;29.90;;;;;;;20.22;40.69;102285.63;5068014;28;20032;-72
2022/06/14 07:54:24;;;;;;;30.58;28.95;;;;;;;20.30;41.28;102287.81;5072442;28;20048;-73
2022/06/14 07:57:14;;;;;;;31.10;29.00;;;;;;;20.39;40.87;102285.41;5072596;28;20533;-73
2022/06/14 07:59:55;;;;;;;30.30;28.70;;;;;;;20.45;40.93;102279.63;5057190;28;20012;-73
2022/06/14 08:02:31;;;;;;;31.65;29.95;;;;;;;20.53;40.83;102287.31;5065163;28;20500;-72
2022/06/14 08:05:04;;;;;;;31.95;30.23;;;;;;;20.60;41.50;102283.53;5072478;28;20100;-72
2022/06/14 08:07:31;;;;;;;32.50;30.85;;;;;;;20.67;41.02;102286.84;5071821;28;20040;-72
2022/06/14 08:10:09;;;;;;;32.60;30.85;;;;;;;20.76;41.27;102276.94;5060171;28;20055;-73
2022/06/14 08:12:37;;;;;;;30.60;28.80;;;;;;;20.83;41.27;102274.75;5058278;28;20025;-73
2022/06/14 08:15:05;;;;;;;30.83;29.23;;;;;;;20.91;40.57;102267.88;5071783;28;20028;-73
2022/06/14 08:17:31;;;;;;;33.58;31.60;;;;;;;20.99;40.52;102272.84;5071377;28;20070;-72
2022/06/14 08:20:08;;;;;;;33.08;31.27;;;;;;;21.06;40.65;102278.03;5070734;28;20117;-72
2022/06/14 08:22:40;;;;;;;32.08;30.15;;;;;;;21.14;40.30;102269.22;5063299;28;20089;-73
2022/06/14 08:25:12;;;;;;;32.30;30.50;;;;;;;21.22;40.32;102274.19;5070980;28;20063;-70
2022/06/14 08:28:12;;;;;;;33.17;31.27;;;;;;;21.32;40.95;102268.66;5069347;28;20029;-72
2022/06/14 08:30:43;;;;;;;32.47;30.67;;;;;;;21.41;41.16;102268.94;5071052;28;20036;-72
2022/06/14 08:33:18;;;;;;;33.13;31.45;;;;;;;21.49;40.76;102257.34;5061965;28;20032;-73
2022/06/14 08:35:46;;;;;;;31.42;29.83;;;;;;;21.58;39.93;102263.94;5071855;28;20036;-73
2022/06/14 08:38:41;;;;;;;34.90;33.10;;;;;;;21.69;40.67;102263.91;5069613;28;20032;-73
2022/06/14 08:41:16;;;;;;;33.00;31.40;;;;;;;21.76;40.68;102262.50;5070239;28;20148;-71
2022/06/14 08:43:45;;;;;;;34.15;32.25;;;;;;;21.88;39.01;102264.09;5071339;28;20033;-73
2022/06/14 08:46:19;;;;;;;35.08;33.17;;;;;;;21.95;37.97;102264.63;5070676;28;20033;-73
2022/06/14 08:49:04;;;;;;;34.50;32.50;;;;;;;22.01;39.04;102264.31;5070381;28;20115;-73
2022/06/14 08:51:37;;;;;;;35.05;33.35;;;;;;;22.09;39.25;102256.56;5070614;28;20029;-73
2022/06/14 08:54:25;;;;;;;35.35;33.55;;;;;;;22.20;39.68;102260.91;5069543;28;20034;-73
2022/06/14 08:57:01;;;;;;;33.97;32.25;;;;;;;22.29;39.38;102259.22;5071377;28;20039;-72
2022/06/14 08:59:48;;;;;;;36.80;34.88;;;;;;;22.40;39.97;102259.97;5068491;28;20060;-72
2022/06/14 09:02:16;;;;;;;37.15;35.15;;;;;;;22.47;39.45;102261.28;5070251;28;20032;-72
2022/06/14 09:05:02;;;;;;;36.72;34.92;;;;;;;22.58;37.90;102251.03;5065935;28;20373;-73
2022/06/14 09:07:37;;;;;;;36.00;34.10;;;;;;;22.64;38.61;102254.56;5055820;28;20024;-72
2022/06/14 09:10:19;;;;;;;34.55;32.85;;;;;;;22.73;38.84;102252.00;5070037;28;20078;-73
2022/06/14 09:13:03;;;;;;;35.95;34.15;;;;;;;22.83;39.27;102258.28;5064268;28;20069;-75
2022/06/14 09:15:51;;;;;;;39.75;37.65;;;;;;;22.93;38.90;102257.38;5065532;28;20036;-72
2022/06/14 09:18:35;;;;;;;38.33;36.30;;;;;;;23.04;39.05;102247.09;5060703;28;20086;-71
2022/06/14 09:21:27;;;;;;;37.13;34.95;;;;;;;23.14;39.10;102243.41;5070283;28;20033;-72
2022/06/14 09:24:01;;;;;;;38.67;36.67;;;;;;;23.24;38.92;102240.53;5071322;28;20457;-73
2022/06/14 09:26:34;;;;;;;37.75;35.85;;;;;;;23.35;39.17;102242.06;5072129;28;20044;-75
2022/06/14 09:29:19;;;;;;;38.88;36.78;;;;;;;23.46;37.05;102237.25;5070386;28;20032;-67
2022/06/14 09:32:22;;;;;;;39.20;37.30;;;;;;;23.55;38.17;102235.50;5064198;28;20024;-71
2022/06/14 09:35:15;;;;;;;38.97;36.97;;;;;;;23.64;37.08;102236.50;5017682;28;20409;-71
2022/06/14 09:37:52;;;;;;;39.65;37.58;;;;;;;23.72;35.19;102235.88;5056561;28;20029;-71
2022/06/14 09:40:50;;;;;;;40.83;38.83;;;;;;;23.81;37.60;102233.25;5071756;28;20032;-71
2022/06/14 09:43:21;;;;;;;40.40;38.20;;;;;;;23.90;37.37;102230.66;5027065;28;20072;-71
2022/06/14 09:46:07;;;;;;;41.80;39.30;;;;;;;23.99;36.34;102223.38;5067183;28;20079;-71
2022/06/14 09:48:35;;;;;;;42.22;40.13;;;;;;;24.08;35.72;102220.75;5061944;28;20036;-71
2022/06/14 09:51:43;;;;;;;40.88;38.67;;;;;;;24.18;36.68;102226.13;5072015;28;20024;-72
2022/06/14 09:54:22;;;;;;;39.20;37.30;;;;;;;24.29;35.88;102221.25;5067307;28;20399;-72
2022/06/14 09:57:23;;;;;;;40.38;38.38;;;;;;;24.36;36.96;102218.94;5069940;28;20067;-72
2022/06/14 10:00:30;;;;;;;42.30;40.03;;;;;;;24.48;37.63;102218.50;5071222;28;20017;-72
2022/06/14 10:03:41;;;;;;;40.78;38.58;;;;;;;24.60;37.44;102221.63;5032035;28;20047;-72
2022/06/14 10:06:15;;;;;;;40.58;38.53;;;;;;;24.72;37.80;102223.91;5062442;28;20028;-71
2022/06/14 10:09:13;;;;;;;40.45;38.35;;;;;;;24.83;37.28;102212.38;5060740;28;20363;-72
2022/06/14 10:11:56;;;;;;;42.78;40.15;;;;;;;24.94;36.83;102210.22;5071028;28;20017;-72
2022/06/14 10:14:32;;;;;;;43.15;40.83;;;;;;;25.04;37.26;102207.28;5053264;28;20048;-72
2022/06/14 10:16:58;;;;;;;43.10;41.00;;;;;;;25.14;37.48;102203.50;5068494;28;20438;-72
2022/06/14 10:19:57;;;;;;;44.53;42.05;;;;;;;25.25;36.67;102204.16;5071352;28;20046;-72
2022/06/14 10:22:43;;;;;;;46.33;43.80;;;;;;;25.35;34.90;102201.19;5062190;28;20040;-72
2022/06/14 10:25:21;;;;;;;44.70;42.30;;;;;;;25.42;34.15;102189.69;5050518;28;20052;-72
2022/06/14 10:28:14;;;;;;;44.83;42.30;;;;;;;25.51;35.77;102189.81;5060167;28;20021;-71
2022/06/14 10:31:12;;;;;;;45.90;43.35;;;;;;;25.60;35.83;102180.47;5052703;28;20083;-72
2022/06/14 10:33:43;;;;;;;47.92;45.30;;;;;;;25.70;34.40;102176.63;5039066;28;20049;-72
2022/06/14 10:36:28;;;;;;;44.35;42.25;;;;;;;25.81;35.12;102177.25;5059175;28;20051;-72
2022/06/14 10:39:14;;;;;;;45.88;43.58;;;;;;;25.87;35.80;102167.72;5066006;28;20047;-72
2022/06/14 10:41:49;;;;;;;45.83;43.38;;;;;;;25.99;35.45;102172.72;5057070;28;20522;-71
2022/06/14 10:44:45;;;;;;;47.67;45.17;;;;;;;26.07;34.86;102167.22;5060558;28;20033;-72
2022/06/14 10:47:25;;;;;;;48.15;45.75;;;;;;;26.18;35.36;102165.03;5078164;28;20020;-72
2022/06/14 10:50:07;;;;;;;47.53;45.03;;;;;;;26.26;35.30;102167.06;5064861;28;20083;-72
2022/06/14 10:52:57;;;;;;;48.55;46.05;;;;;;;26.36;35.71;102159.63;5056569;28;20368;-72
2022/06/14 10:55:44;;;;;;;48.92;46.30;;;;;;;26.46;35.73;102162.13;5067705;28;20056;-71
2022/06/14 10:58:22;;;;;;;50.60;47.97;;;;;;;26.54;36.27;102158.63;5072221;28;20101;-72
2022/06/14 11:01:02;;;;;;;51.42;48.78;;;;;;;26.61;36.51;102156.25;5068075;28;20552;-72
2022/06/14 11:03:36;;;;;;;51.45;48.75;;;;;;;26.70;36.06;102151.53;5065534;28;20055;-70
2022/06/14 11:06:07;;;;;;;50.45;47.95;;;;;;;26.79;35.57;102146.06;5063736;28;20496;-73
2022/06/14 11:08:57;;;;;;;50.10;47.60;;;;;;;26.89;36.11;102150.50;5070794;28;20052;-72
2022/06/14 11:11:40;;;;;;;48.25;45.78;;;;;;;26.98;35.61;102154.09;5064790;28;20024;-74
2022/06/14 11:14:21;;;;;;;52.55;49.78;;;;;;;27.05;35.23;102145.34;5069707;28;20024;-74
2022/06/14 11:17:05;;;;;;;52.08;49.58;;;;;;;27.14;34.74;102146.16;5065165;28;20067;-73
2022/06/14 11:19:48;;;;;;;56.38;53.65;;;;;;;27.23;34.72;102138.72;5057655;28;20036;-73
2022/06/14 11:22:35;;;;;;;54.55;51.78;;;;;;;27.32;33.83;102138.75;5065117;28;20046;-74
2022/06/14 11:25:22;;;;;;;55.15;52.40;;;;;;;27.39;34.92;102131.59;5062146;28;20047;-74
2022/06/14 11:27:58;;;;;;;52.65;50.15;;;;;;;27.47;34.68;102129.13;5059208;28;20096;-74
2022/06/14 11:30:40;;;;;;;53.15;50.50;;;;;;;27.55;34.19;102131.13;5064566;28;20020;-74
2022/06/14 11:33:23;;;;;;;53.80;50.70;;;;;;;27.62;34.71;102123.94;5060358;28;20085;-74
2022/06/14 11:36:33;;;;;;;53.20;50.53;;;;;;;27.71;34.60;102123.13;5060844;28;20025;-74
2022/06/14 11:39:21;;;;;;;54.22;51.38;;;;;;;27.79;34.56;102119.53;5060852;28;20063;-73
2022/06/14 11:41:49;;;;;;;51.97;49.47;;;;;;;27.85;34.66;102115.47;5061197;28;20048;-73
2022/06/14 11:44:36;;;;;;;53.25;50.63;;;;;;;27.93;33.88;102114.66;5067142;28;20509;-74
2022/06/14 11:47:17;;;;;;;54.33;51.72;;;;;;;28.00;32.89;102112.19;5060756;28;20465;-74
2022/06/14 11:50:00;;;;;;;56.05;53.35;;;;;;;28.09;34.34;102114.16;5070375;28;20024;-75
2022/06/14 11:52:40;;;;;;;53.03;50.53;;;;;;;28.16;33.26;102108.91;5061889;28;20075;-73
2022/06/14 11:55:27;;;;;;;55.75;53.05;;;;;;;28.23;30.06;102117.56;5055805;28;20045;-74
2022/06/14 11:57:58;;;;;;;54.13;51.53;;;;;;;28.27;32.30;102115.72;5061898;28;20037;-74
2022/06/14 12:00:35;;;;;;;55.92;53.13;;;;;;;28.34;31.29;102109.69;5061614;28;20028;-73
2022/06/14 12:03:36;;;;;;;54.85;52.25;;;;;;;28.41;32.24;102105.25;5059090;28;20025;-75